CCGS Samuel Risley — CG2960 — position and weather

sailwx.info

Track history (hours):
 
Tides and Currents Weather Stations Pressure Air Temp Water Temp Dewpoint Dewpoint Depression Visibility Wind Speed Wind Dir Waves Ship Positions

CCGS Samuel Risley (Canada)

Medium Navaids Tender - Light Icebreaker

Last reported at 2017-Feb-05 15:00 UTC. Time now 2017-Mar-25 04:02 UTC.
Position N 42°54' W 082°30'.
Warning: this ship's position is 47 days out of date.

Length 69.73 m; beam 13.7 m; draft 5.2 m.

Type: SAR. MMSI: 316001890.

Wind from 210 at 8 knots

Barometer 1011.6 mb
Air temperature -1.3 ° C
Dewpoint -5.9 ° C

Date/timePositionNaut miles runAvg speedWind from/ knotsBaromVisibWave heightAir tempDewpointWater temp
2017-Feb-05 15:00N 42°54' W 082°30'1212.0 210 / 81011.6 -1.3-5.9
2017-Feb-05 14:00N 42°42' W 082°30'13 0.3 210 / 8990.2 -1.6-4.8
2017-Feb-03 16:00N 42°54' W 082°24'24 6.1 280 / 91026.7 -8.8-13.2
2017-Feb-03 12:00N 43°18' W 082°18'0 0.0 260 / 161025.0 -8.5-14.2
2017-Feb-03 11:00N 43°18' W 082°18'0 0.0 270 / 171024.4 -8.4-14.1
2017-Feb-03 10:00N 43°18' W 082°18'7 3.7 280 / 171024.2 -8.3-13.7
2017-Feb-03 08:00N 43°24' W 082°24'0 0.0 280 / 171024.7 -8.2-13.3
2017-Feb-03 07:00N 43°24' W 082°24'0 0.0 280 / 181024.6 -8.3-13.5
2017-Feb-03 06:00N 43°24' W 082°24'4 2.2 290 / 161025.0 -8.5-13.1
2017-Feb-03 04:00N 43°24' W 082°30'0 0.0 280 / 161025.3 -9.1-13.3
2017-Feb-03 03:00N 43°24' W 082°30'4 4.4 270 / 151025.3 -9.1-13.0
2017-Feb-03 02:00N 43°24' W 082°24'14 7.2 260 / 201024.9 -8.6-13.1
2017-Feb-03 00:00N 43°30' W 082°06'9 8.7 250 / 211024.0 -6.3-12.7
2017-Feb-02 23:00N 43°30' W 081°54'7 7.4 260 / 191023.9 -5.8-11.7
2017-Feb-02 22:00N 43°36' W 081°48'6 6.0 250 / 161023.7 -5.9-11.4
2017-Feb-02 21:00N 43°42' W 081°48'7 7.4 260 / 171023.1 -6.4-12.3
2017-Feb-02 20:00N 43°48' W 081°54'1313.0 270 / 181022.8 -6.0-10.7
2017-Feb-02 19:00N 43°48' W 082°12'9 8.7 280 / 201022.7 -4.1-11.1
2017-Feb-02 18:00N 43°48' W 082°24'1110.5 270 / 211023.0 -4.8-11.2
2017-Feb-02 17:00N 43°54' W 082°36'1312.8 220 / 101023.0 -7.7-12.5
2017-Feb-02 16:00N 43°42' W 082°30'12 6.0 270 / 211022.8 -7.9-12.5
2017-Feb-02 14:00N 43°30' W 082°30'4 2.2 270 / 181021.7 -6.5-12.0
2017-Feb-02 12:00N 43°30' W 082°24'0 0.0 270 / 61020.4 -4.6-10.8
2017-Feb-02 11:00N 43°30' W 082°24'0 0.0 300 / 61020.1 -4.6-8.5
2017-Feb-02 10:00N 43°30' W 082°24'4 4.4 280 / 51019.6 -4.4-8.7
2017-Feb-02 09:00N 43°30' W 082°30'0 0.0 300 / 41019.5 -4.1-9.3
2017-Feb-02 08:00N 43°30' W 082°30'0 0.0 300 / 41019.5 -4.0-9.0
2017-Feb-02 07:00N 43°30' W 082°30'0 0.0 320 / 171018.7 -3.7-8.7
2017-Feb-02 06:00N 43°30' W 082°30'0 0.0 320 / 61018.7 -2.9-6.9
2017-Feb-02 05:00N 43°30' W 082°30'0 0.0 310 / 31018.4 -2.5-6.7
2017-Feb-02 04:00N 43°30' W 082°30'4 4.4 300 / 61018.1 -1.9-6.1
2017-Feb-02 03:00N 43°30' W 082°24'0 0.0 300 / 41017.9 -1.2-5.6
2017-Feb-02 02:00N 43°30' W 082°24'4 4.4 290 / 71017.7 -0.8-5.2
2017-Feb-02 01:00N 43°30' W 082°30'0 0.0 270 / 91017.1 -0.5-4.8
2017-Feb-02 00:00N 43°30' W 082°30'0 0.0 270 / 81017.2 -1.3-4.2
2017-Feb-01 23:00N 43°30' W 082°30'0 0.0 250 / 71016.6 0.1-3.9
2017-Feb-01 22:00N 43°30' W 082°30'0 0.0 280 / 71015.9 0.4-4.0
2017-Feb-01 21:00N 43°30' W 082°30'6 6.0 260 / 121014.8 0.6-5.4
2017-Feb-01 20:00N 43°24' W 082°30'1313.1 270 / 141014.0 0.7-6.3
2017-Feb-01 19:00N 43°24' W 082°12'1313.1 260 / 151014.6 1.2-5.3
2017-Feb-01 18:00N 43°24' W 082°30'6 6.0 260 / 101014.5 2.6-5.3
2017-Feb-01 17:00N 43°18' W 082°30'1312.8 210 / 71015.1 -0.1-4.9
2017-Feb-01 16:00N 43°06' W 082°24'1212.0 250 / 171014.9 -0.2-4.6
2017-Feb-01 15:00N 42°54' W 082°24'0 0.0 270 / 111014.7 -0.7-3.8
2017-Feb-01 14:00N 42°54' W 082°24'0 0.0 230 / 51014.2 -1.9-3.5
2017-Feb-01 13:00N 42°54' W 082°24'0 0.0 230 / 41013.1 -2.0-3.7
2017-Feb-01 12:00N 42°54' W 082°24'0 0.0 220 / 21012.6 -2.0-4.2
2017-Feb-01 11:00N 42°54' W 082°24'0 0.0 240 / 51011.9 -1.5-4.6
2017-Feb-01 10:00N 42°54' W 082°24'0 0.0 260 / 41011.2 -1.4-4.9
2017-Feb-01 09:00N 42°54' W 082°24'0 0.0 260 / 81010.7 -1.0-4.7
2017-Feb-01 08:00N 42°54' W 082°24'0 0.0 250 / 101010.7 -0.8-4.2
2017-Feb-01 07:00N 42°54' W 082°24'0 0.0 260 / 91010.2 -1.0-4.7
2017-Feb-01 06:00N 42°54' W 082°24'0 0.0 270 / 111009.4 -1.0-4.6
2017-Feb-01 05:00N 42°54' W 082°24'0 0.0 270 / 111009.1 -1.4-5.2
2017-Feb-01 04:00N 42°54' W 082°24'0 0.0 260 / 121008.7 -1.5-5.1
2017-Feb-01 03:00N 42°54' W 082°24'0 0.0 260 / 141008.0 -1.9-5.3
2017-Feb-01 02:00N 42°54' W 082°24'0 0.0 260 / 141007.2 -1.3-3.9
2017-Feb-01 01:00N 42°54' W 082°24'0 0.0 260 / 111006.5 -1.2-2.5
2017-Feb-01 00:00N 42°54' W 082°24'0 0.0 260 / 111006.0 -1.1-2.1
2017-Jan-31 23:00N 42°54' W 082°24'0 0.0 220 / 21005.3 -0.9-2.0
2017-Jan-31 22:00N 42°54' W 082°24'0 0.0 170 / 11004.8 -0.8-2.1
2017-Jan-31 21:00N 42°54' W 082°24'0 0.0 230 / 31004.4 -1.0-2.4
2017-Jan-31 20:00N 42°54' W 082°24'0 0.0 170 / 11003.7 -0.7-2.9
2017-Jan-31 19:00N 42°54' W 082°24'0 0.0 140 / 11003.5 0.1-3.2
2017-Jan-31 18:00N 42°54' W 082°24'0 0.0 1003.6 -0.6-3.4
2017-Jan-31 17:00N 42°54' W 082°24'0 0.0 080 / 31003.4 -1.4-3.3
2017-Jan-31 16:00N 42°54' W 082°24'0 0.0 080 / 31003.2 -1.4-3.2
2017-Jan-31 15:00N 42°54' W 082°24'0 0.0 110 / 31002.7 -1.3-3.3
2017-Jan-31 14:00N 42°54' W 082°24'0 0.0 100 / 31002.2 -1.9-3.3
2017-Jan-31 13:00N 42°54' W 082°24'0 0.0 120 / 41001.4 -2.6-3.9
2017-Jan-31 12:00N 42°54' W 082°24'0 0.0 110 / 61001.6 -2.8-4.4
2017-Jan-31 11:00N 42°54' W 082°24'0 0.0 120 / 61002.1 -3.5-4.6
2017-Jan-31 10:00N 42°54' W 082°24'0 0.0 130 / 61002.6 -3.8-5.0
2017-Jan-31 09:00N 42°54' W 082°24'0 0.0 130 / 71003.4 -4.3-5.5
2017-Jan-31 08:00N 42°54' W 082°24'0 0.0 150 / 81004.8 -4.6-5.8
2017-Jan-31 07:00N 42°54' W 082°24'0 0.0 140 / 81005.8 -4.6-5.7
2017-Jan-31 06:00N 42°54' W 082°24'0 0.0 140 / 81007.9 -4.7-5.7
2017-Jan-31 05:00N 42°54' W 082°24'0 0.0 170 / 31009.8 -4.4-5.5
2017-Jan-31 04:00N 42°54' W 082°24'0 0.0 160 / 51010.7 -4.6-8.0
2017-Jan-31 03:00N 42°54' W 082°24'0 0.0 150 / 71011.5 -5.2-9.1
2017-Jan-31 02:00N 42°54' W 082°24'0 0.0 150 / 41012.1 -5.4-9.3
2017-Jan-31 01:00N 42°54' W 082°24'0 0.0 160 / 51012.6 -5.4-9.1
2017-Jan-31 00:00N 42°54' W 082°24'0 0.0 160 / 41013.0 -4.8-11.7
2017-Jan-30 23:00N 42°54' W 082°24'0 0.0 210 / 11014.5 -5.0-12.9
2017-Jan-30 22:00N 42°54' W 082°24'0 0.0 240 / 51014.6 -5.1-13.9
2017-Jan-30 21:00N 42°54' W 082°24'0 0.0 250 / 51014.2 -5.0-14.2
2017-Jan-30 20:00N 42°54' W 082°24'0 0.0 260 / 71013.8 -5.3-14.8
2017-Jan-30 19:00N 42°54' W 082°24'0 0.0 300 / 91014.0 -5.3-15.0
2017-Jan-30 18:00N 42°54' W 082°24'0 0.0 270 / 111014.5 -5.7-14.4
2017-Jan-30 17:00N 42°54' W 082°24'0 0.0 300 / 101014.9 -5.8-13.4
2017-Jan-30 16:00N 42°54' W 082°24'0 0.0 290 / 121014.9 -6.9-13.9
2017-Jan-30 15:00N 42°54' W 082°24'0 0.0 280 / 111014.5 -7.4-13.5
2017-Jan-30 14:00N 42°54' W 082°24'0 0.0 300 / 101014.0 -7.8-12.4
2017-Jan-30 13:00N 42°54' W 082°24'0 0.0 310 / 81013.2 -7.7-11.5
2017-Jan-30 12:00N 42°54' W 082°24'0 0.0 310 / 101012.5 -7.5-11.4
2017-Jan-30 11:00N 42°54' W 082°24'0 0.0 310 / 121012.1 -7.3-11.0
2017-Jan-30 10:00N 42°54' W 082°24'0 0.0 310 / 111011.5 -7.0-10.3
2017-Jan-30 09:00N 42°54' W 082°24'0 0.0 310 / 91010.9 -6.5-10.1
2017-Jan-30 08:00N 42°54' W 082°24'0 0.0 320 / 71010.8 -6.7-10.5
2017-Jan-30 07:00N 42°54' W 082°24'0 0.0 320 / 81010.2 -6.2-9.8
2017-Jan-30 06:00N 42°54' W 082°24'0 0.0 320 / 71010.1 -5.5-8.0
2017-Jan-30 05:00N 42°54' W 082°24'0 0.0 320 / 61010.1 -5.0-8.4
2017-Jan-30 04:00N 42°54' W 082°24'0 0.0 300 / 51010.0 -4.8-7.8
2017-Jan-30 03:00N 42°54' W 082°24'0 0.0 320 / 41009.8 -4.5-7.6
2017-Jan-30 02:00N 42°54' W 082°24'0 0.0 300 / 71010.0 -4.4-8.5
2017-Jan-30 01:00N 42°54' W 082°24'0 0.0 320 / 61009.9 -4.2-9.0
2017-Jan-30 00:00N 42°54' W 082°24'0 0.0 320 / 31009.6 -3.7-9.3
2017-Jan-29 23:00N 42°54' W 082°24'0 0.0 330 / 61009.1 -3.5-9.6
2017-Jan-29 22:00N 42°54' W 082°24'0 0.0 340 / 41008.7 -3.0-9.9
2017-Jan-29 21:00N 42°54' W 082°24'0 0.0 310 / 61008.2 -2.9-10.1
2017-Jan-29 20:00N 42°54' W 082°24'0 0.0 300 / 91007.9 -3.0-10.5
2017-Jan-29 19:00N 42°54' W 082°24'0 0.0 290 / 71007.8 -3.1-9.9
2017-Jan-29 18:00N 42°54' W 082°24'0 0.0 300 / 81008.0 -3.3-9.8
2017-Jan-29 17:00N 42°54' W 082°24'0 0.0 280 / 121008.4 -3.6-10.2
2017-Jan-29 16:00N 42°54' W 082°24'0 0.0 270 / 71008.6 -3.8-8.9
2017-Jan-29 15:00N 42°54' W 082°24'0 0.0 300 / 71008.2 -3.8-9.0
2017-Jan-29 14:00N 42°54' W 082°24'0 0.0 280 / 61007.8 -3.9-7.6
2017-Jan-29 13:00N 42°54' W 082°24'0 0.0 310 / 41007.2 -3.9-6.5
2017-Jan-29 12:00N 42°54' W 082°24'0 0.0 290 / 51007.1 -4.1-7.3
2017-Jan-29 11:00N 42°54' W 082°24'0 0.0 280 / 51006.9 -4.0-7.6
2017-Jan-29 10:00N 42°54' W 082°24'0 0.0 290 / 51006.7 -3.8-8.8
2017-Jan-29 09:00N 42°54' W 082°24'0 0.0 310 / 101006.6 -3.6-8.9
2017-Jan-29 08:00N 42°54' W 082°24'0 0.0 290 / 71006.6 -3.5-7.1
2017-Jan-29 07:00N 42°54' W 082°24'0 0.0 300 / 71006.2 -3.4-6.7
2017-Jan-29 06:00N 42°54' W 082°24'0 0.0 310 / 91005.9 -2.6-5.7
2017-Jan-29 05:00N 42°54' W 082°24'0 0.0 270 / 91005.7 -2.0-5.6
2017-Jan-29 04:00N 42°54' W 082°24'0 0.0 270 / 101005.5 -1.8-5.1
2017-Jan-29 03:00N 42°54' W 082°24'0 0.0 260 / 101005.2 -1.7-4.2
2017-Jan-29 02:00N 42°54' W 082°24'0 0.0 260 / 91005.0 -1.6-4.1
2017-Jan-29 01:00N 42°54' W 082°24'0 0.0 240 / 91004.7 -1.6-4.2
2017-Jan-29 00:00N 42°54' W 082°24'0 0.0 250 / 91004.1 -1.6-4.1
2017-Jan-28 23:00N 42°54' W 082°24'0 0.0 250 / 91003.5 -1.6-3.2
2017-Jan-28 22:00N 42°54' W 082°24'0 0.0 240 / 71003.3 -1.5-3.5
2017-Jan-28 21:00N 42°54' W 082°24'0 0.0 250 / 111003.1 -1.5-4.1
2017-Jan-28 20:00N 42°54' W 082°24'0 0.0 250 / 101002.9 -1.5-4.3
2017-Jan-28 19:00N 42°54' W 082°24'0 0.0 250 / 101003.0 -1.5-4.6
2017-Jan-28 18:00N 42°54' W 082°24'1818.0 260 / 61003.2 -1.0-4.5
2017-Jan-28 17:00N 43°12' W 082°24'7 7.4 230 / 121003.4 -1.4-4.2
2017-Jan-28 16:00N 43°18' W 082°18'0 0.0 230 / 111003.8 -0.9-4.0
2017-Jan-28 15:00N 43°18' W 082°18'0 0.0 230 / 121003.9 -1.1-4.1
2017-Jan-28 14:00N 43°18' W 082°18'0 0.0 230 / 121003.6 -1.6-4.4
2017-Jan-28 13:00N 43°18' W 082°18'0 0.0 260 / 121003.8 -1.4-4.2
2017-Jan-28 12:00N 43°18' W 082°18'7 7.4 240 / 131004.0 -1.7-4.3
2017-Jan-28 11:00N 43°24' W 082°24'0 0.0 240 / 131004.0 -1.8-4.2
2017-Jan-28 10:00N 43°24' W 082°24'0 0.0 230 / 141004.3 -2.2-4.2
2017-Jan-28 09:00N 43°24' W 082°24'0 0.0 240 / 131004.7 -2.0-4.7
2017-Jan-28 08:00N 43°24' W 082°24'4 4.4 250 / 151005.1 -1.8-5.0
2017-Jan-28 07:00N 43°24' W 082°30'7 7.4 230 / 71004.6 -1.6-5.2
2017-Jan-28 06:00N 43°18' W 082°24'6 6.0 260 / 141005.6 -1.7-5.6
2017-Jan-28 05:00N 43°24' W 082°24'4 4.4 260 / 161005.7 -1.6-5.3
2017-Jan-28 04:00N 43°24' W 082°30'7 7.4 270 / 131005.9 -1.5-5.0
2017-Jan-28 03:00N 43°18' W 082°24'1212.0 200 / 61006.1 -1.7-5.3
2017-Jan-28 02:00N 43°06' W 082°24'0 0.0 210 / 61006.4 -1.6-4.7
2017-Jan-28 01:00N 43°06' W 082°24'0 0.0 260 / 151006.6 -1.2-3.5
2017-Jan-28 00:00N 43°06' W 082°24'0 0.0 270 / 91006.6 -1.2-3.6
2017-Jan-27 23:00N 43°06' W 082°24'6 6.0 260 / 131006.4 -1.4-4.0
2017-Jan-27 22:00N 43°12' W 082°24'0 0.0 260 / 181005.9 -0.7-4.9
2017-Jan-27 21:00N 43°12' W 082°24'4 4.4 260 / 201005.6 -0.6-5.0
2017-Jan-27 20:00N 43°12' W 082°30'7 7.4 260 / 171005.2 0.3-4.9
2017-Jan-27 19:00N 43°06' W 082°24'4 4.4 240 / 201005.7 -0.5-4.6
2017-Jan-27 18:00N 43°06' W 082°18'0 0.0 260 / 221006.4 -0.2-4.9
2017-Jan-27 17:00N 43°06' W 082°18'7 7.4 270 / 171007.2 0.1-4.3
2017-Jan-27 16:00N 43°12' W 082°24'6 6.0 270 / 161007.6 0.1-3.9
2017-Jan-27 15:00N 43°06' W 082°24'12 4.0 200 / 81008.0 -0.1-4.1
2017-Jan-27 12:00N 42°54' W 082°24'0 0.0 260 / 81007.9 -0.2-3.1
2017-Jan-27 11:00N 42°54' W 082°24'0 0.0 250 / 71007.8 -0.8-1.9
2017-Jan-27 10:00N 42°54' W 082°24'0 0.0 260 / 121007.9 -0.3-3.6
2017-Jan-27 09:00N 42°54' W 082°24'0 0.0 280 / 121008.1 -0.3-3.6
2017-Jan-27 08:00N 42°54' W 082°24'0 0.0 270 / 111008.0 0.5-3.2
2017-Jan-27 07:00N 42°54' W 082°24'0 0.0 270 / 111007.8 0.8-3.3
2017-Jan-27 06:00N 42°54' W 082°24'0 0.0 250 / 51008.0 0.4-1.8
2017-Jan-27 05:00N 42°54' W 082°24'0 0.0 270 / 101008.1 0.8-2.2
2017-Jan-27 04:00N 42°54' W 082°24'0 0.0 250 / 81007.9 1.2-2.0
2017-Jan-27 03:00N 42°54' W 082°24'0 0.0 270 / 91007.6 1.1-2.7
2017-Jan-27 02:00N 42°54' W 082°24'0 0.0 280 / 131007.3 1.4-2.0
2017-Jan-27 01:00N 42°54' W 082°24'0 0.0 270 / 141006.8 1.6-1.7
2017-Jan-27 00:00N 42°54' W 082°24'0 0.0 300 / 71006.2 1.9-0.4
2017-Jan-26 23:00N 42°54' W 082°24'0 0.0 270 / 131005.5 1.8-0.8
2017-Jan-26 22:00N 42°54' W 082°24'0 0.0 280 / 151004.5 3.1-0.8
2017-Jan-26 21:00N 42°54' W 082°24'0 0.0 280 / 121003.7 3.4 0.3
2017-Jan-26 20:00N 42°54' W 082°24'0 0.0 290 / 141002.7 3.0-0.1
2017-Jan-26 19:00N 42°54' W 082°24'0 0.0 290 / 141002.0 2.1 0.5
2017-Jan-26 18:00N 42°54' W 082°24'0 0.0 300 / 121001.2 2.5 0.3
2017-Jan-26 17:00N 42°54' W 082°24'0 0.0 300 / 131001.0 2.1 0.4
2017-Jan-26 16:00N 42°54' W 082°24'0 0.0 300 / 111000.1 1.8 0.7
2017-Jan-26 15:00N 42°54' W 082°24'   290 / 11998.9 1.0 0.4
Track history (hours):
 
Tides and Currents Weather Stations Pressure Air Temp Water Temp Dewpoint Dewpoint Depression Visibility Wind Speed Wind Dir Waves Ship Positions

CCGS Samuel Risley (Canada)

Medium Navaids Tender - Light Icebreaker

Last reported at 2017-Feb-05 15:00 UTC. Time now 2017-Mar-25 04:02 UTC.
Position N 42°54' W 082°30'.
Warning: this ship's position is 47 days out of date.

Length 69.73 m; beam 13.7 m; draft 5.2 m.

Type: SAR. MMSI: 316001890.

Wind from 210 at 8 knots

Barometer 1011.6 mb
Air temperature -1.3 ° C
Dewpoint -5.9 ° C

Date/timePositionNaut miles runAvg speedWind from/ knotsBaromVisibWave heightAir tempDewpointWater temp
2017-Feb-05 15:00N 42°54' W 082°30'1212.0 210 / 81011.6 -1.3-5.9
2017-Feb-05 14:00N 42°42' W 082°30'13 0.3 210 / 8990.2 -1.6-4.8
2017-Feb-03 16:00N 42°54' W 082°24'24 6.1 280 / 91026.7 -8.8-13.2
2017-Feb-03 12:00N 43°18' W 082°18'0 0.0 260 / 161025.0 -8.5-14.2
2017-Feb-03 11:00N 43°18' W 082°18'0 0.0 270 / 171024.4 -8.4-14.1
2017-Feb-03 10:00N 43°18' W 082°18'7 3.7 280 / 171024.2 -8.3-13.7
2017-Feb-03 08:00N 43°24' W 082°24'0 0.0 280 / 171024.7 -8.2-13.3
2017-Feb-03 07:00N 43°24' W 082°24'0 0.0 280 / 181024.6 -8.3-13.5
2017-Feb-03 06:00N 43°24' W 082°24'4 2.2 290 / 161025.0 -8.5-13.1
2017-Feb-03 04:00N 43°24' W 082°30'0 0.0 280 / 161025.3 -9.1-13.3
2017-Feb-03 03:00N 43°24' W 082°30'4 4.4 270 / 151025.3 -9.1-13.0
2017-Feb-03 02:00N 43°24' W 082°24'14 7.2 260 / 201024.9 -8.6-13.1
2017-Feb-03 00:00N 43°30' W 082°06'9 8.7 250 / 211024.0 -6.3-12.7
2017-Feb-02 23:00N 43°30' W 081°54'7 7.4 260 / 191023.9 -5.8-11.7
2017-Feb-02 22:00N 43°36' W 081°48'6 6.0 250 / 161023.7 -5.9-11.4
2017-Feb-02 21:00N 43°42' W 081°48'7 7.4 260 / 171023.1 -6.4-12.3
2017-Feb-02 20:00N 43°48' W 081°54'1313.0 270 / 181022.8 -6.0-10.7
2017-Feb-02 19:00N 43°48' W 082°12'9 8.7 280 / 201022.7 -4.1-11.1
2017-Feb-02 18:00N 43°48' W 082°24'1110.5 270 / 211023.0 -4.8-11.2
2017-Feb-02 17:00N 43°54' W 082°36'1312.8 220 / 101023.0 -7.7-12.5
2017-Feb-02 16:00N 43°42' W 082°30'12 6.0 270 / 211022.8 -7.9-12.5
2017-Feb-02 14:00N 43°30' W 082°30'4 2.2 270 / 181021.7 -6.5-12.0
2017-Feb-02 12:00N 43°30' W 082°24'0 0.0 270 / 61020.4 -4.6-10.8
2017-Feb-02 11:00N 43°30' W 082°24'0 0.0 300 / 61020.1 -4.6-8.5
2017-Feb-02 10:00N 43°30' W 082°24'4 4.4 280 / 51019.6 -4.4-8.7
2017-Feb-02 09:00N 43°30' W 082°30'0 0.0 300 / 41019.5 -4.1-9.3
2017-Feb-02 08:00N 43°30' W 082°30'0 0.0 300 / 41019.5 -4.0-9.0
2017-Feb-02 07:00N 43°30' W 082°30'0 0.0 320 / 171018.7 -3.7-8.7
2017-Feb-02 06:00N 43°30' W 082°30'0 0.0 320 / 61018.7 -2.9-6.9
2017-Feb-02 05:00N 43°30' W 082°30'0 0.0 310 / 31018.4 -2.5-6.7
2017-Feb-02 04:00N 43°30' W 082°30'4 4.4 300 / 61018.1 -1.9-6.1
2017-Feb-02 03:00N 43°30' W 082°24'0 0.0 300 / 41017.9 -1.2-5.6
2017-Feb-02 02:00N 43°30' W 082°24'4 4.4 290 / 71017.7 -0.8-5.2
2017-Feb-02 01:00N 43°30' W 082°30'0 0.0 270 / 91017.1 -0.5-4.8
2017-Feb-02 00:00N 43°30' W 082°30'0 0.0 270 / 81017.2 -1.3-4.2
2017-Feb-01 23:00N 43°30' W 082°30'0 0.0 250 / 71016.6 0.1-3.9
2017-Feb-01 22:00N 43°30' W 082°30'0 0.0 280 / 71015.9 0.4-4.0
2017-Feb-01 21:00N 43°30' W 082°30'6 6.0 260 / 121014.8 0.6-5.4
2017-Feb-01 20:00N 43°24' W 082°30'1313.1 270 / 141014.0 0.7-6.3
2017-Feb-01 19:00N 43°24' W 082°12'1313.1 260 / 151014.6 1.2-5.3
2017-Feb-01 18:00N 43°24' W 082°30'6 6.0 260 / 101014.5 2.6-5.3
2017-Feb-01 17:00N 43°18' W 082°30'1312.8 210 / 71015.1 -0.1-4.9
2017-Feb-01 16:00N 43°06' W 082°24'1212.0 250 / 171014.9 -0.2-4.6
2017-Feb-01 15:00N 42°54' W 082°24'0 0.0 270 / 111014.7 -0.7-3.8
2017-Feb-01 14:00N 42°54' W 082°24'0 0.0 230 / 51014.2 -1.9-3.5
2017-Feb-01 13:00N 42°54' W 082°24'0 0.0 230 / 41013.1 -2.0-3.7
2017-Feb-01 12:00N 42°54' W 082°24'0 0.0 220 / 21012.6 -2.0-4.2
2017-Feb-01 11:00N 42°54' W 082°24'0 0.0 240 / 51011.9 -1.5-4.6
2017-Feb-01 10:00N 42°54' W 082°24'0 0.0 260 / 41011.2 -1.4-4.9
2017-Feb-01 09:00N 42°54' W 082°24'0 0.0 260 / 81010.7 -1.0-4.7
2017-Feb-01 08:00N 42°54' W 082°24'0 0.0 250 / 101010.7 -0.8-4.2
2017-Feb-01 07:00N 42°54' W 082°24'0 0.0 260 / 91010.2 -1.0-4.7
2017-Feb-01 06:00N 42°54' W 082°24'0 0.0 270 / 111009.4 -1.0-4.6
2017-Feb-01 05:00N 42°54' W 082°24'0 0.0 270 / 111009.1 -1.4-5.2
2017-Feb-01 04:00N 42°54' W 082°24'0 0.0 260 / 121008.7 -1.5-5.1
2017-Feb-01 03:00N 42°54' W 082°24'0 0.0 260 / 141008.0 -1.9-5.3
2017-Feb-01 02:00N 42°54' W 082°24'0 0.0 260 / 141007.2 -1.3-3.9
2017-Feb-01 01:00N 42°54' W 082°24'0 0.0 260 / 111006.5 -1.2-2.5
2017-Feb-01 00:00N 42°54' W 082°24'0 0.0 260 / 111006.0 -1.1-2.1
2017-Jan-31 23:00N 42°54' W 082°24'0 0.0 220 / 21005.3 -0.9-2.0
2017-Jan-31 22:00N 42°54' W 082°24'0 0.0 170 / 11004.8 -0.8-2.1
2017-Jan-31 21:00N 42°54' W 082°24'0 0.0 230 / 31004.4 -1.0-2.4
2017-Jan-31 20:00N 42°54' W 082°24'0 0.0 170 / 11003.7 -0.7-2.9
2017-Jan-31 19:00N 42°54' W 082°24'0 0.0 140 / 11003.5 0.1-3.2
2017-Jan-31 18:00N 42°54' W 082°24'0 0.0 1003.6 -0.6-3.4
2017-Jan-31 17:00N 42°54' W 082°24'0 0.0 080 / 31003.4 -1.4-3.3
2017-Jan-31 16:00N 42°54' W 082°24'0 0.0 080 / 31003.2 -1.4-3.2
2017-Jan-31 15:00N 42°54' W 082°24'0 0.0 110 / 31002.7 -1.3-3.3
2017-Jan-31 14:00N 42°54' W 082°24'0 0.0 100 / 31002.2 -1.9-3.3
2017-Jan-31 13:00N 42°54' W 082°24'0 0.0 120 / 41001.4 -2.6-3.9
2017-Jan-31 12:00N 42°54' W 082°24'0 0.0 110 / 61001.6 -2.8-4.4
2017-Jan-31 11:00N 42°54' W 082°24'0 0.0 120 / 61002.1 -3.5-4.6
2017-Jan-31 10:00N 42°54' W 082°24'0 0.0 130 / 61002.6 -3.8-5.0
2017-Jan-31 09:00N 42°54' W 082°24'0 0.0 130 / 71003.4 -4.3-5.5
2017-Jan-31 08:00N 42°54' W 082°24'0 0.0 150 / 81004.8 -4.6-5.8
2017-Jan-31 07:00N 42°54' W 082°24'0 0.0 140 / 81005.8 -4.6-5.7
2017-Jan-31 06:00N 42°54' W 082°24'0 0.0 140 / 81007.9 -4.7-5.7
2017-Jan-31 05:00N 42°54' W 082°24'0 0.0 170 / 31009.8 -4.4-5.5
2017-Jan-31 04:00N 42°54' W 082°24'0 0.0 160 / 51010.7 -4.6-8.0
2017-Jan-31 03:00N 42°54' W 082°24'0 0.0 150 / 71011.5 -5.2-9.1
2017-Jan-31 02:00N 42°54' W 082°24'0 0.0 150 / 41012.1 -5.4-9.3
2017-Jan-31 01:00N 42°54' W 082°24'0 0.0 160 / 51012.6 -5.4-9.1
2017-Jan-31 00:00N 42°54' W 082°24'0 0.0 160 / 41013.0 -4.8-11.7
2017-Jan-30 23:00N 42°54' W 082°24'0 0.0 210 / 11014.5 -5.0-12.9
2017-Jan-30 22:00N 42°54' W 082°24'0 0.0 240 / 51014.6 -5.1-13.9
2017-Jan-30 21:00N 42°54' W 082°24'0 0.0 250 / 51014.2 -5.0-14.2
2017-Jan-30 20:00N 42°54' W 082°24'0 0.0 260 / 71013.8 -5.3-14.8
2017-Jan-30 19:00N 42°54' W 082°24'0 0.0 300 / 91014.0 -5.3-15.0
2017-Jan-30 18:00N 42°54' W 082°24'0 0.0 270 / 111014.5 -5.7-14.4
2017-Jan-30 17:00N 42°54' W 082°24'0 0.0 300 / 101014.9 -5.8-13.4
2017-Jan-30 16:00N 42°54' W 082°24'0 0.0 290 / 121014.9 -6.9-13.9
2017-Jan-30 15:00N 42°54' W 082°24'0 0.0 280 / 111014.5 -7.4-13.5
2017-Jan-30 14:00N 42°54' W 082°24'0 0.0 300 / 101014.0 -7.8-12.4
2017-Jan-30 13:00N 42°54' W 082°24'0 0.0 310 / 81013.2 -7.7-11.5
2017-Jan-30 12:00N 42°54' W 082°24'0 0.0 310 / 101012.5 -7.5-11.4
2017-Jan-30 11:00N 42°54' W 082°24'0 0.0 310 / 121012.1 -7.3-11.0
2017-Jan-30 10:00N 42°54' W 082°24'0 0.0 310 / 111011.5 -7.0-10.3
2017-Jan-30 09:00N 42°54' W 082°24'0 0.0 310 / 91010.9 -6.5-10.1
2017-Jan-30 08:00N 42°54' W 082°24'0 0.0 320 / 71010.8 -6.7-10.5
2017-Jan-30 07:00N 42°54' W 082°24'0 0.0 320 / 81010.2 -6.2-9.8
2017-Jan-30 06:00N 42°54' W 082°24'0 0.0 320 / 71010.1 -5.5-8.0
2017-Jan-30 05:00N 42°54' W 082°24'0 0.0 320 / 61010.1 -5.0-8.4
2017-Jan-30 04:00N 42°54' W 082°24'0 0.0 300 / 51010.0 -4.8-7.8
2017-Jan-30 03:00N 42°54' W 082°24'0 0.0 320 / 41009.8 -4.5-7.6
2017-Jan-30 02:00N 42°54' W 082°24'0 0.0 300 / 71010.0 -4.4-8.5
2017-Jan-30 01:00N 42°54' W 082°24'0 0.0 320 / 61009.9 -4.2-9.0
2017-Jan-30 00:00N 42°54' W 082°24'0 0.0 320 / 31009.6 -3.7-9.3
2017-Jan-29 23:00N 42°54' W 082°24'0 0.0 330 / 61009.1 -3.5-9.6
2017-Jan-29 22:00N 42°54' W 082°24'0 0.0 340 / 41008.7 -3.0-9.9
2017-Jan-29 21:00N 42°54' W 082°24'0 0.0 310 / 61008.2 -2.9-10.1
2017-Jan-29 20:00N 42°54' W 082°24'0 0.0 300 / 91007.9 -3.0-10.5
2017-Jan-29 19:00N 42°54' W 082°24'0 0.0 290 / 71007.8 -3.1-9.9
2017-Jan-29 18:00N 42°54' W 082°24'0 0.0 300 / 81008.0 -3.3-9.8
2017-Jan-29 17:00N 42°54' W 082°24'0 0.0 280 / 121008.4 -3.6-10.2
2017-Jan-29 16:00N 42°54' W 082°24'0 0.0 270 / 71008.6 -3.8-8.9
2017-Jan-29 15:00N 42°54' W 082°24'0 0.0 300 / 71008.2 -3.8-9.0
2017-Jan-29 14:00N 42°54' W 082°24'0 0.0 280 / 61007.8 -3.9-7.6
2017-Jan-29 13:00N 42°54' W 082°24'0 0.0 310 / 41007.2 -3.9-6.5
2017-Jan-29 12:00N 42°54' W 082°24'0 0.0 290 / 51007.1 -4.1-7.3
2017-Jan-29 11:00N 42°54' W 082°24'0 0.0 280 / 51006.9 -4.0-7.6
2017-Jan-29 10:00N 42°54' W 082°24'0 0.0 290 / 51006.7 -3.8-8.8
2017-Jan-29 09:00N 42°54' W 082°24'0 0.0 310 / 101006.6 -3.6-8.9
2017-Jan-29 08:00N 42°54' W 082°24'0 0.0 290 / 71006.6 -3.5-7.1
2017-Jan-29 07:00N 42°54' W 082°24'0 0.0 300 / 71006.2 -3.4-6.7
2017-Jan-29 06:00N 42°54' W 082°24'0 0.0 310 / 91005.9 -2.6-5.7
2017-Jan-29 05:00N 42°54' W 082°24'0 0.0 270 / 91005.7 -2.0-5.6
2017-Jan-29 04:00N 42°54' W 082°24'0 0.0 270 / 101005.5 -1.8-5.1
2017-Jan-29 03:00N 42°54' W 082°24'0 0.0 260 / 101005.2 -1.7-4.2
2017-Jan-29 02:00N 42°54' W 082°24'0 0.0 260 / 91005.0 -1.6-4.1
2017-Jan-29 01:00N 42°54' W 082°24'0 0.0 240 / 91004.7 -1.6-4.2
2017-Jan-29 00:00N 42°54' W 082°24'0 0.0 250 / 91004.1 -1.6-4.1
2017-Jan-28 23:00N 42°54' W 082°24'0 0.0 250 / 91003.5 -1.6-3.2
2017-Jan-28 22:00N 42°54' W 082°24'0 0.0 240 / 71003.3 -1.5-3.5
2017-Jan-28 21:00N 42°54' W 082°24'0 0.0 250 / 111003.1 -1.5-4.1
2017-Jan-28 20:00N 42°54' W 082°24'0 0.0 250 / 101002.9 -1.5-4.3
2017-Jan-28 19:00N 42°54' W 082°24'0 0.0 250 / 101003.0 -1.5-4.6
2017-Jan-28 18:00N 42°54' W 082°24'1818.0 260 / 61003.2 -1.0-4.5
2017-Jan-28 17:00N 43°12' W 082°24'7 7.4 230 / 121003.4 -1.4-4.2
2017-Jan-28 16:00N 43°18' W 082°18'0 0.0 230 / 111003.8 -0.9-4.0
2017-Jan-28 15:00N 43°18' W 082°18'0 0.0 230 / 121003.9 -1.1-4.1
2017-Jan-28 14:00N 43°18' W 082°18'0 0.0 230 / 121003.6 -1.6-4.4
2017-Jan-28 13:00N 43°18' W 082°18'0 0.0 260 / 121003.8 -1.4-4.2
2017-Jan-28 12:00N 43°18' W 082°18'7 7.4 240 / 131004.0 -1.7-4.3
2017-Jan-28 11:00N 43°24' W 082°24'0 0.0 240 / 131004.0 -1.8-4.2
2017-Jan-28 10:00N 43°24' W 082°24'0 0.0 230 / 141004.3 -2.2-4.2
2017-Jan-28 09:00N 43°24' W 082°24'0 0.0 240 / 131004.7 -2.0-4.7
2017-Jan-28 08:00N 43°24' W 082°24'4 4.4 250 / 151005.1 -1.8-5.0
2017-Jan-28 07:00N 43°24' W 082°30'7 7.4 230 / 71004.6 -1.6-5.2
2017-Jan-28 06:00N 43°18' W 082°24'6 6.0 260 / 141005.6 -1.7-5.6
2017-Jan-28 05:00N 43°24' W 082°24'4 4.4 260 / 161005.7 -1.6-5.3
2017-Jan-28 04:00N 43°24' W 082°30'7 7.4 270 / 131005.9 -1.5-5.0
2017-Jan-28 03:00N 43°18' W 082°24'1212.0 200 / 61006.1 -1.7-5.3
2017-Jan-28 02:00N 43°06' W 082°24'0 0.0 210 / 61006.4 -1.6-4.7
2017-Jan-28 01:00N 43°06' W 082°24'0 0.0 260 / 151006.6 -1.2-3.5
2017-Jan-28 00:00N 43°06' W 082°24'0 0.0 270 / 91006.6 -1.2-3.6
2017-Jan-27 23:00N 43°06' W 082°24'6 6.0 260 / 131006.4 -1.4-4.0
2017-Jan-27 22:00N 43°12' W 082°24'0 0.0 260 / 181005.9 -0.7-4.9
2017-Jan-27 21:00N 43°12' W 082°24'4 4.4 260 / 201005.6 -0.6-5.0
2017-Jan-27 20:00N 43°12' W 082°30'7 7.4 260 / 171005.2 0.3-4.9
2017-Jan-27 19:00N 43°06' W 082°24'4 4.4 240 / 201005.7 -0.5-4.6
2017-Jan-27 18:00N 43°06' W 082°18'0 0.0 260 / 221006.4 -0.2-4.9
2017-Jan-27 17:00N 43°06' W 082°18'7 7.4 270 / 171007.2 0.1-4.3
2017-Jan-27 16:00N 43°12' W 082°24'6 6.0 270 / 161007.6 0.1-3.9
2017-Jan-27 15:00N 43°06' W 082°24'12 4.0 200 / 81008.0 -0.1-4.1
2017-Jan-27 12:00N 42°54' W 082°24'0 0.0 260 / 81007.9 -0.2-3.1
2017-Jan-27 11:00N 42°54' W 082°24'0 0.0 250 / 71007.8 -0.8-1.9
2017-Jan-27 10:00N 42°54' W 082°24'0 0.0 260 / 121007.9 -0.3-3.6
2017-Jan-27 09:00N 42°54' W 082°24'0 0.0 280 / 121008.1 -0.3-3.6
2017-Jan-27 08:00N 42°54' W 082°24'0 0.0 270 / 111008.0 0.5-3.2
2017-Jan-27 07:00N 42°54' W 082°24'0 0.0 270 / 111007.8 0.8-3.3
2017-Jan-27 06:00N 42°54' W 082°24'0 0.0 250 / 51008.0 0.4-1.8
2017-Jan-27 05:00N 42°54' W 082°24'0 0.0 270 / 101008.1 0.8-2.2
2017-Jan-27 04:00N 42°54' W 082°24'0 0.0 250 / 81007.9 1.2-2.0
2017-Jan-27 03:00N 42°54' W 082°24'0 0.0 270 / 91007.6 1.1-2.7
2017-Jan-27 02:00N 42°54' W 082°24'0 0.0 280 / 131007.3 1.4-2.0
2017-Jan-27 01:00N 42°54' W 082°24'0 0.0 270 / 141006.8 1.6-1.7
2017-Jan-27 00:00N 42°54' W 082°24'0 0.0 300 / 71006.2 1.9-0.4
2017-Jan-26 23:00N 42°54' W 082°24'0 0.0 270 / 131005.5 1.8-0.8
2017-Jan-26 22:00N 42°54' W 082°24'0 0.0 280 / 151004.5 3.1-0.8
2017-Jan-26 21:00N 42°54' W 082°24'0 0.0 280 / 121003.7 3.4 0.3
2017-Jan-26 20:00N 42°54' W 082°24'0 0.0 290 / 141002.7 3.0-0.1
2017-Jan-26 19:00N 42°54' W 082°24'0 0.0 290 / 141002.0 2.1 0.5
2017-Jan-26 18:00N 42°54' W 082°24'0 0.0 300 / 121001.2 2.5 0.3
2017-Jan-26 17:00N 42°54' W 082°24'0 0.0 300 / 131001.0 2.1 0.4
2017-Jan-26 16:00N 42°54' W 082°24'0 0.0 300 / 111000.1 1.8 0.7
2017-Jan-26 15:00N 42°54' W 082°24'   290 / 11998.9 1.0 0.4

Dump ship's entire track history